createdAt,value
2018-12-22T00:02:54.703Z,0.37
2018-12-22T00:05:22.930Z,0.40
2018-12-22T00:07:51.327Z,0.30
2018-12-22T00:10:19.607Z,0.40
2018-12-22T00:12:47.988Z,0.50
2018-12-22T00:15:16.212Z,0.50
2018-12-22T00:17:44.443Z,0.30
2018-12-22T00:20:12.943Z,0.40
2018-12-22T00:22:41.238Z,0.30
2018-12-22T00:25:09.567Z,0.30
2018-12-22T00:27:38.834Z,0.30
2018-12-22T00:30:08.271Z,0.30
2018-12-22T00:32:36.532Z,0.30
2018-12-22T00:35:06.135Z,0.30
2018-12-22T00:37:34.450Z,0.40
2018-12-22T00:40:02.753Z,0.20
2018-12-22T00:42:31.255Z,0.20
2018-12-22T00:44:59.552Z,0.30
2018-12-22T00:47:27.791Z,0.20
2018-12-22T00:49:56.078Z,0.47
2018-12-22T00:52:24.463Z,0.40
2018-12-22T00:54:52.899Z,0.50
2018-12-22T00:57:21.183Z,0.37
2018-12-22T00:59:49.431Z,0.37
2018-12-22T01:02:17.774Z,0.47
2018-12-22T01:04:46.105Z,0.30
2018-12-22T01:07:14.458Z,0.30
2018-12-22T01:09:42.711Z,0.50
2018-12-22T01:12:10.971Z,0.40
2018-12-22T01:14:39.398Z,0.40
2018-12-22T01:17:07.771Z,0.40
2018-12-22T01:19:36.429Z,0.50
2018-12-22T01:22:04.955Z,0.43
2018-12-22T01:24:33.194Z,0.40
2018-12-22T01:27:01.504Z,0.40
2018-12-22T01:29:29.763Z,0.40
2018-12-22T01:31:58.143Z,0.47
2018-12-22T01:34:26.466Z,0.30
2018-12-22T01:36:54.911Z,0.40
2018-12-22T01:39:23.186Z,0.40
2018-12-22T01:41:51.567Z,0.40
2018-12-22T01:44:19.788Z,0.47
2018-12-22T01:46:48.200Z,0.50
2018-12-22T01:49:16.604Z,0.43
2018-12-22T01:51:45.070Z,0.40
2018-12-22T01:54:13.515Z,0.50
2018-12-22T01:56:41.779Z,0.40
2018-12-22T01:59:10.038Z,0.30
2018-12-22T02:01:38.620Z,0.40
2018-12-22T02:04:06.863Z,0.30
2018-12-22T02:06:35.094Z,0.30
2018-12-22T02:09:04.687Z,0.30
2018-12-22T02:11:33.120Z,0.50
2018-12-22T02:14:01.346Z,0.30
2018-12-22T02:16:29.583Z,0.20
2018-12-22T02:18:57.951Z,0.50
2018-12-22T02:21:26.183Z,0.60
2018-12-22T02:23:54.504Z,0.40
2018-12-22T02:26:22.780Z,0.50
2018-12-22T02:28:56.485Z,0.30
2018-12-22T02:31:21.292Z,0.67
2018-12-22T02:33:49.646Z,0.40
2018-12-22T02:36:17.867Z,0.40
2018-12-22T02:38:46.098Z,0.40
2018-12-22T02:41:14.673Z,0.40
2018-12-22T02:43:42.982Z,0.50
2018-12-22T02:46:11.426Z,0.50
2018-12-22T02:48:39.856Z,0.40
2018-12-22T02:51:08.209Z,0.40
2018-12-22T02:53:36.682Z,0.50
2018-12-22T02:56:04.988Z,0.33
2018-12-22T02:58:33.199Z,0.50
2018-12-22T03:01:01.446Z,0.50
2018-12-22T03:03:29.671Z,0.40
2018-12-22T03:05:57.915Z,0.50
2018-12-22T03:08:26.152Z,0.40
2018-12-22T03:10:54.522Z,0.40
2018-12-22T03:13:22.786Z,0.40
2018-12-22T03:15:51.071Z,0.40
2018-12-22T03:18:19.448Z,0.33
2018-12-22T03:20:47.778Z,0.30
2018-12-22T03:23:16.057Z,0.40
2018-12-22T03:25:44.387Z,0.40
2018-12-22T03:28:12.693Z,0.30
2018-12-22T03:30:40.905Z,0.53
2018-12-22T03:33:09.242Z,0.40
2018-12-22T03:35:37.591Z,0.37
2018-12-22T03:38:05.895Z,0.50
2018-12-22T03:40:34.160Z,0.30
2018-12-22T03:43:02.424Z,0.40
2018-12-22T03:45:30.725Z,0.30
2018-12-22T03:47:58.967Z,0.30
2018-12-22T03:50:27.263Z,0.30
2018-12-22T03:52:55.619Z,0.33
2018-12-22T03:55:23.931Z,0.40
2018-12-22T03:57:52.224Z,0.33
2018-12-22T04:00:20.671Z,0.47
2018-12-22T04:02:49.785Z,0.30
2018-12-22T04:05:18.034Z,0.30
2018-12-22T04:07:46.420Z,0.30
2018-12-22T04:10:15.311Z,0.40
2018-12-22T04:12:43.559Z,0.30
2018-12-22T04:15:11.803Z,0.33
2018-12-22T04:17:40.017Z,0.30
2018-12-22T04:20:08.287Z,0.43
2018-12-22T04:22:36.519Z,0.30
2018-12-22T04:25:05.418Z,0.47
2018-12-22T04:27:33.711Z,0.30
2018-12-22T04:30:02.102Z,0.30
2018-12-22T04:32:30.788Z,0.30
2018-12-22T04:34:59.011Z,0.20
2018-12-22T04:37:27.246Z,0.30
2018-12-22T04:39:55.475Z,0.27
2018-12-22T04:42:23.798Z,0.30
2018-12-22T04:44:52.044Z,0.27
2018-12-22T04:47:24.363Z,0.30
2018-12-22T04:49:52.715Z,0.20
2018-12-22T04:52:20.960Z,0.30
2018-12-22T04:54:49.284Z,0.20
2018-12-22T04:57:17.672Z,0.30
2018-12-22T04:59:46.044Z,0.20
2018-12-22T05:02:14.416Z,0.30
2018-12-22T05:04:42.648Z,0.30
2018-12-22T05:07:11.039Z,0.30
2018-12-22T05:09:39.311Z,0.30
2018-12-22T05:12:07.820Z,0.30
2018-12-22T05:14:36.096Z,0.30
2018-12-22T05:17:04.359Z,0.27
2018-12-22T05:19:32.608Z,0.30
2018-12-22T05:22:01.069Z,0.43
2018-12-22T05:24:29.289Z,0.30
2018-12-22T05:26:57.693Z,0.20
2018-12-22T05:29:25.906Z,0.30
2018-12-22T05:31:54.280Z,0.50
2018-12-22T05:34:22.725Z,0.30
2018-12-22T05:36:51.099Z,0.40
2018-12-22T05:39:19.440Z,0.30
2018-12-22T05:41:47.862Z,0.30
2018-12-22T05:44:16.183Z,0.30
2018-12-22T05:46:44.645Z,0.40
2018-12-22T05:49:12.894Z,0.40
2018-12-22T05:51:41.373Z,0.20
2018-12-22T05:54:09.618Z,0.20
2018-12-22T05:56:37.842Z,0.20
2018-12-22T05:59:06.055Z,0.33
2018-12-22T06:01:34.479Z,0.30
2018-12-22T06:04:02.708Z,0.30
2018-12-22T06:06:30.947Z,0.37
2018-12-22T06:08:59.203Z,0.40
2018-12-22T06:11:27.789Z,0.27
2018-12-22T06:13:56.423Z,0.30
2018-12-22T06:16:24.679Z,0.30
2018-12-22T06:18:52.901Z,0.37
2018-12-22T06:21:21.149Z,0.30
2018-12-22T06:23:49.353Z,0.37
2018-12-22T06:26:17.566Z,0.20
2018-12-22T06:28:45.802Z,0.40
2018-12-22T06:31:14.099Z,0.30
2018-12-22T06:36:16.791Z,0.20
2018-12-22T06:38:45.176Z,0.30
2018-12-22T06:41:13.434Z,0.40
2018-12-22T06:43:41.808Z,0.30
2018-12-22T06:46:10.099Z,0.40
2018-12-22T06:48:38.376Z,0.30
2018-12-22T06:51:06.650Z,0.30
2018-12-22T06:53:34.896Z,0.30
2018-12-22T06:56:03.111Z,0.40
2018-12-22T06:58:31.379Z,0.53
2018-12-22T07:00:59.630Z,0.50
2018-12-22T07:03:27.840Z,0.30
2018-12-22T07:05:56.100Z,0.30
2018-12-22T07:08:24.444Z,0.30
2018-12-22T07:10:52.660Z,0.50
2018-12-22T07:13:21.139Z,0.40
2018-12-22T07:15:49.415Z,0.30
2018-12-22T07:18:17.652Z,0.33
2018-12-22T07:20:45.902Z,0.40
2018-12-22T07:23:14.138Z,0.40
2018-12-22T07:25:42.420Z,0.30
2018-12-22T07:28:10.800Z,0.30
2018-12-22T07:30:39.019Z,0.40
2018-12-22T07:33:07.248Z,0.27
2018-12-22T07:35:35.469Z,0.40
2018-12-22T07:38:03.739Z,0.40
2018-12-22T07:40:32.080Z,0.40
2018-12-22T07:43:00.334Z,0.40
2018-12-22T07:45:28.584Z,0.30
2018-12-22T07:47:56.823Z,0.50
2018-12-22T07:50:25.108Z,0.50
2018-12-22T07:52:53.557Z,0.60
2018-12-22T07:55:21.839Z,0.40
2018-12-22T07:57:50.127Z,0.43
2018-12-22T08:00:18.367Z,0.30
2018-12-22T08:02:46.647Z,0.40
2018-12-22T08:05:14.952Z,3.67
2018-12-22T08:07:43.260Z,0.47
2018-12-22T08:10:11.503Z,0.50
2018-12-22T08:12:39.812Z,0.40
2018-12-22T08:15:08.048Z,0.40
2018-12-22T08:17:36.334Z,0.40
2018-12-22T08:20:06.600Z,0.67
2018-12-22T08:22:34.825Z,0.60
2018-12-22T08:25:04.497Z,2.17
2018-12-22T08:27:32.719Z,0.40
2018-12-22T08:30:01.226Z,0.40
2018-12-22T08:32:29.519Z,0.50
2018-12-22T08:34:57.788Z,0.50
2018-12-22T08:37:26.020Z,0.40
2018-12-22T08:39:54.335Z,0.43
2018-12-22T08:42:22.595Z,0.50
2018-12-22T08:44:50.927Z,0.70
2018-12-22T08:47:19.162Z,0.50
2018-12-22T08:49:47.509Z,0.53
2018-12-22T08:52:15.755Z,0.40
2018-12-22T08:54:44.306Z,0.87
2018-12-22T08:57:12.630Z,0.70
2018-12-22T08:59:40.907Z,0.40
2018-12-22T09:02:09.189Z,0.40
2018-12-22T09:04:37.471Z,0.30
2018-12-22T09:07:05.718Z,0.33
2018-12-22T09:09:33.963Z,0.40
2018-12-22T09:12:02.185Z,0.60
2018-12-22T09:14:30.419Z,0.40
2018-12-22T09:16:58.636Z,0.97
2018-12-22T09:19:26.874Z,0.40
2018-12-22T09:21:55.134Z,0.43
2018-12-22T09:24:23.360Z,0.40
2018-12-22T09:26:51.642Z,0.60
2018-12-22T09:29:19.960Z,0.80
2018-12-22T09:31:48.311Z,1.33
2018-12-22T09:34:16.571Z,0.50
2018-12-22T09:36:44.818Z,0.63
2018-12-22T09:39:13.093Z,0.47
2018-12-22T09:41:41.395Z,0.47
2018-12-22T09:44:09.711Z,0.60
2018-12-22T09:46:38.014Z,0.60
2018-12-22T09:49:06.331Z,0.70
2018-12-22T09:51:34.549Z,0.50
2018-12-22T09:54:02.776Z,0.60
2018-12-22T09:56:31.052Z,0.67
2018-12-22T09:58:59.355Z,1.50
2018-12-22T10:01:27.592Z,0.70
2018-12-22T10:03:55.860Z,0.60
2018-12-22T10:06:24.089Z,0.60
2018-12-22T10:08:52.507Z,0.70
2018-12-22T10:11:20.735Z,0.57
2018-12-22T10:13:48.987Z,0.60
2018-12-22T10:16:17.217Z,0.60
2018-12-22T10:18:45.488Z,0.50
2018-12-22T10:21:13.758Z,0.70
2018-12-22T10:23:42.062Z,0.80
2018-12-22T10:26:10.367Z,0.60
2018-12-22T10:28:38.595Z,0.50
2018-12-22T10:31:06.891Z,0.60
2018-12-22T10:33:35.119Z,0.60
2018-12-22T10:36:04.032Z,0.70
2018-12-22T10:38:32.362Z,0.53
2018-12-22T10:41:00.656Z,0.60
2018-12-22T10:43:28.911Z,0.70
2018-12-22T10:45:57.163Z,0.70
2018-12-22T10:48:25.433Z,0.60
2018-12-22T10:50:54.258Z,0.70
2018-12-22T10:53:22.515Z,0.80
2018-12-22T10:55:50.870Z,0.77
2018-12-22T10:58:19.192Z,0.70
2018-12-22T11:00:47.577Z,0.63
2018-12-22T11:03:15.839Z,0.67
2018-12-22T11:05:44.055Z,0.80
2018-12-22T11:08:12.283Z,0.60
2018-12-22T11:10:40.558Z,0.60
2018-12-22T11:13:08.806Z,0.70
2018-12-22T11:15:37.043Z,0.80
2018-12-22T11:18:05.300Z,0.63
2018-12-22T11:20:33.715Z,0.50
2018-12-22T11:23:01.999Z,0.70
2018-12-22T11:25:30.215Z,0.60
2018-12-22T11:27:58.512Z,0.60
2018-12-22T11:30:26.744Z,0.60
2018-12-22T11:32:54.992Z,0.77
2018-12-22T11:35:23.282Z,0.60
2018-12-22T11:37:51.536Z,0.70
2018-12-22T11:40:19.791Z,0.93
2018-12-22T11:42:48.057Z,0.70
2018-12-22T11:45:16.336Z,0.90
2018-12-22T11:47:48.261Z,0.80
2018-12-22T11:50:23.815Z,1.00
2018-12-22T11:52:52.338Z,1.27
2018-12-22T11:55:20.599Z,1.07
2018-12-22T11:57:48.901Z,0.67
2018-12-22T12:00:17.240Z,0.83
2018-12-22T12:02:45.462Z,1.27
2018-12-22T12:05:13.886Z,0.87
2018-12-22T12:07:42.379Z,0.73
2018-12-22T12:10:10.767Z,0.80
2018-12-22T12:12:39.050Z,0.80
2018-12-22T12:15:14.610Z,1.10
2018-12-22T12:20:45.456Z,0.70
2018-12-22T12:23:13.737Z,0.80
2018-12-22T12:25:42.025Z,0.80
2018-12-22T12:28:10.278Z,1.10
2018-12-22T12:30:38.565Z,0.80
2018-12-22T12:33:06.827Z,1.00
2018-12-22T12:35:35.119Z,0.80
2018-12-22T12:38:03.366Z,0.90
2018-12-22T12:40:31.696Z,0.90
2018-12-22T12:42:59.971Z,1.10
2018-12-22T12:45:28.219Z,0.80
2018-12-22T12:47:56.483Z,0.90
2018-12-22T12:50:25.144Z,1.07
2018-12-22T12:52:53.467Z,1.10
2018-12-22T12:55:21.751Z,0.80
2018-12-22T12:57:49.981Z,0.80
2018-12-22T13:00:20.838Z,1.50
2018-12-22T13:02:49.114Z,1.10
2018-12-22T13:05:17.379Z,1.20
2018-12-22T13:07:45.599Z,1.53
2018-12-22T13:10:13.867Z,1.20
2018-12-22T13:13:04.676Z,1.20
2018-12-22T13:15:33.010Z,0.90
2018-12-22T13:18:01.394Z,1.00
2018-12-22T13:20:29.747Z,1.17
2018-12-22T13:22:58.043Z,1.10
2018-12-22T13:25:26.298Z,0.90
2018-12-22T13:27:54.529Z,1.50
2018-12-22T13:30:22.779Z,1.50
2018-12-22T13:32:51.031Z,1.17
2018-12-22T13:35:19.369Z,1.10
2018-12-22T13:37:47.635Z,1.37
2018-12-22T13:40:16.013Z,1.13
2018-12-22T13:42:44.258Z,1.20
2018-12-22T13:45:12.590Z,1.50
2018-12-22T13:47:41.106Z,1.10
2018-12-22T13:50:13.900Z,1.23
2018-12-22T13:52:42.175Z,1.40
2018-12-22T13:55:10.937Z,1.17
2018-12-22T13:57:43.741Z,1.00
2018-12-22T14:00:23.029Z,1.40
2018-12-22T14:02:51.315Z,1.57
2018-12-22T14:05:28.360Z,1.00
2018-12-22T14:07:56.658Z,1.20
2018-12-22T14:10:24.886Z,1.63
2018-12-22T14:12:53.380Z,1.23
2018-12-22T14:15:25.231Z,1.37
2018-12-22T14:18:08.688Z,1.17
2018-12-22T14:20:36.938Z,1.00
2018-12-22T14:23:05.190Z,1.60
2018-12-22T14:25:33.434Z,1.20
2018-12-22T14:28:01.652Z,2.40
2018-12-22T14:30:29.961Z,2.40
2018-12-22T14:32:58.272Z,4.53
2018-12-22T14:35:31.991Z,1.10
2018-12-22T14:38:00.227Z,1.60
2018-12-22T14:40:28.676Z,1.20
2018-12-22T14:42:57.076Z,1.70
2018-12-22T14:45:25.474Z,7.03
2018-12-22T14:47:53.728Z,1.90
2018-12-22T14:50:21.988Z,1.13
2018-12-22T14:52:50.268Z,1.40
2018-12-22T14:55:18.576Z,1.40
2018-12-22T14:57:56.763Z,0.97
2018-12-22T15:00:25.019Z,1.13
2018-12-22T15:02:53.329Z,1.17
2018-12-22T15:05:21.699Z,1.00
2018-12-22T15:07:49.975Z,1.20
2018-12-22T15:10:18.239Z,1.00
2018-12-22T15:12:46.567Z,0.70
2018-12-22T15:15:14.901Z,0.90
2018-12-22T15:17:43.968Z,1.00
2018-12-22T15:20:34.084Z,1.20
2018-12-22T15:23:05.044Z,1.20
2018-12-22T15:25:33.311Z,1.20
2018-12-22T15:28:01.561Z,1.20
2018-12-22T15:30:29.863Z,1.17
2018-12-22T15:32:58.108Z,1.30
2018-12-22T15:35:26.388Z,1.50
2018-12-22T15:37:54.608Z,1.20
2018-12-22T15:40:23.066Z,1.10
2018-12-22T15:42:51.291Z,1.50
2018-12-22T15:45:19.697Z,1.47
2018-12-22T15:47:47.953Z,1.70
2018-12-22T15:50:31.363Z,1.43
2018-12-22T15:52:59.960Z,1.40
2018-12-22T15:55:28.261Z,1.33
2018-12-22T15:57:56.551Z,3.13
2018-12-22T16:00:24.924Z,1.43
2018-12-22T16:02:53.651Z,1.40
2018-12-22T16:05:22.069Z,2.10
2018-12-22T16:07:50.300Z,1.70
2018-12-22T16:10:18.635Z,1.83
2018-12-22T16:12:46.926Z,1.47
2018-12-22T16:15:22.361Z,2.30
2018-12-22T16:17:50.737Z,2.00
2018-12-22T16:20:19.020Z,1.70
2018-12-22T16:22:55.506Z,1.63
2018-12-22T16:25:23.776Z,1.90
2018-12-22T16:27:57.671Z,1.73
2018-12-22T16:30:37.223Z,2.00
2018-12-22T16:33:05.500Z,1.77
2018-12-22T16:35:33.845Z,1.80
2018-12-22T16:38:02.252Z,1.57
2018-12-22T16:40:30.628Z,1.80
2018-12-22T16:42:59.394Z,1.77
2018-12-22T16:45:27.782Z,1.63
2018-12-22T16:47:56.027Z,1.73
2018-12-22T16:50:24.779Z,1.60
2018-12-22T16:52:53.103Z,1.53
2018-12-22T16:55:21.401Z,1.73
2018-12-22T16:58:04.805Z,1.63
2018-12-22T17:00:41.703Z,2.00
2018-12-22T17:03:10.921Z,1.87
2018-12-22T17:05:39.595Z,2.10
2018-12-22T17:08:07.979Z,1.63
2018-12-22T17:10:36.351Z,1.80
2018-12-22T17:13:04.659Z,1.77
2018-12-22T17:15:32.981Z,2.10
2018-12-22T17:18:01.295Z,1.80
2018-12-22T17:20:30.259Z,1.80
2018-12-22T17:23:10.965Z,1.40
2018-12-22T17:25:40.974Z,1.53
2018-12-22T17:28:09.259Z,1.13
2018-12-22T17:30:37.739Z,1.60
2018-12-22T17:33:06.623Z,1.57
2018-12-22T17:35:35.724Z,1.60
2018-12-22T17:38:03.990Z,1.20
2018-12-22T17:40:32.194Z,1.40
2018-12-22T17:43:01.048Z,1.30
2018-12-22T17:45:29.253Z,1.73
2018-12-22T17:47:57.527Z,1.50
2018-12-22T17:50:25.767Z,1.33
2018-12-22T17:52:54.075Z,1.70
2018-12-22T17:55:22.428Z,1.63
2018-12-22T17:57:50.702Z,1.30
2018-12-22T18:00:20.354Z,1.73
2018-12-22T18:02:48.809Z,1.70
2018-12-22T18:05:17.059Z,1.60
2018-12-22T18:07:45.342Z,1.60
2018-12-22T18:10:13.591Z,1.87
2018-12-22T18:12:41.910Z,1.93
2018-12-22T18:15:23.759Z,1.80
2018-12-22T18:17:52.193Z,1.87
2018-12-22T18:20:20.444Z,1.87
2018-12-22T18:22:48.725Z,1.47
2018-12-22T18:25:21.371Z,1.50
2018-12-22T18:27:52.402Z,1.50
2018-12-22T18:30:20.744Z,1.57
2018-12-22T18:32:49.107Z,1.83
2018-12-22T18:35:17.315Z,1.93
2018-12-22T18:37:45.751Z,1.20
2018-12-22T18:40:19.329Z,1.80
2018-12-22T18:42:48.133Z,1.60
2018-12-22T18:45:16.473Z,1.30
2018-12-22T18:47:45.162Z,1.27
2018-12-22T18:50:21.525Z,1.10
2018-12-22T18:52:49.827Z,1.17
2018-12-22T18:55:18.145Z,1.00
2018-12-22T18:57:49.901Z,1.00
2018-12-22T19:00:22.599Z,1.20
2018-12-22T19:02:51.501Z,1.63
2018-12-22T19:05:20.674Z,1.30
2018-12-22T19:07:49.538Z,1.40
2018-12-22T19:10:25.820Z,1.40
2018-12-22T19:12:56.146Z,1.20
2018-12-22T19:15:24.355Z,1.40
2018-12-22T19:17:52.569Z,1.33
2018-12-22T19:20:27.427Z,1.40
2018-12-22T19:22:55.662Z,1.90
2018-12-22T19:25:24.677Z,1.83
2018-12-22T19:27:52.891Z,1.93
2018-12-22T19:30:21.103Z,1.83
2018-12-22T19:32:49.427Z,1.70
2018-12-22T19:35:17.691Z,2.10
2018-12-22T19:37:45.902Z,2.30
2018-12-22T19:40:14.183Z,1.50
2018-12-22T19:42:42.401Z,1.90
2018-12-22T19:45:10.871Z,1.77
2018-12-22T19:47:39.092Z,1.90
2018-12-22T19:50:07.863Z,2.27
2018-12-22T19:52:36.146Z,1.80
2018-12-22T19:55:06.536Z,2.30
2018-12-22T19:57:34.790Z,1.70
2018-12-22T20:00:03.109Z,1.80
2018-12-22T20:02:31.364Z,1.73
2018-12-22T20:04:59.764Z,1.90
2018-12-22T20:07:27.967Z,1.80
2018-12-22T20:09:56.323Z,1.53
2018-12-22T20:12:24.535Z,2.13
2018-12-22T20:14:52.774Z,2.27
2018-12-22T20:17:21.058Z,2.20
2018-12-22T20:19:49.261Z,1.93
2018-12-22T20:22:17.593Z,1.90
2018-12-22T20:24:45.822Z,1.70
2018-12-22T20:27:14.031Z,1.93
2018-12-22T20:29:42.241Z,2.17
2018-12-22T20:32:10.459Z,2.00
2018-12-22T20:34:38.778Z,1.90
2018-12-22T20:37:07.054Z,2.30
2018-12-22T20:39:35.338Z,2.23
2018-12-22T20:42:03.616Z,2.10
2018-12-22T20:44:31.881Z,1.77
2018-12-22T20:47:00.154Z,1.83
2018-12-22T20:49:28.447Z,1.93
2018-12-22T20:51:56.791Z,2.03
2018-12-22T20:54:25.006Z,1.57
2018-12-22T20:56:53.268Z,1.60
2018-12-22T20:59:21.479Z,1.90
2018-12-22T21:01:49.836Z,1.90
2018-12-22T21:04:19.919Z,1.80
2018-12-22T21:06:48.394Z,2.10
2018-12-22T21:09:16.696Z,1.73
2018-12-22T21:11:44.943Z,1.53
2018-12-22T21:14:13.160Z,1.90
2018-12-22T21:16:41.487Z,1.27
2018-12-22T21:19:09.703Z,1.70
2018-12-22T21:21:38.003Z,1.53
2018-12-22T21:24:06.239Z,1.40
2018-12-22T21:26:34.531Z,1.50
2018-12-22T21:29:03.014Z,1.63
2018-12-22T21:31:31.213Z,1.80
2018-12-22T21:33:59.441Z,1.80
2018-12-22T21:36:27.731Z,2.03
2018-12-22T21:38:55.953Z,1.50
2018-12-22T21:41:24.195Z,2.00
2018-12-22T21:43:52.486Z,2.00
2018-12-22T21:46:20.708Z,1.77
2018-12-22T21:48:49.000Z,1.97
2018-12-22T21:51:17.241Z,1.77
2018-12-22T21:53:45.546Z,1.50
2018-12-22T21:56:13.813Z,1.70
2018-12-22T21:58:42.085Z,1.77
2018-12-22T22:01:10.319Z,1.90
2018-12-22T22:03:38.881Z,1.73
2018-12-22T22:06:07.145Z,1.93
2018-12-22T22:08:35.480Z,1.77
2018-12-22T22:11:03.727Z,1.60
2018-12-22T22:13:31.985Z,1.50
2018-12-22T22:16:00.405Z,1.60
2018-12-22T22:18:28.613Z,1.50
2018-12-22T22:20:56.908Z,1.97
2018-12-22T22:23:25.132Z,1.50
2018-12-22T22:25:53.340Z,1.83
2018-12-22T22:28:21.555Z,2.20
2018-12-22T22:30:49.761Z,1.33
2018-12-22T22:33:18.023Z,1.83
2018-12-22T22:35:46.255Z,1.70
2018-12-22T22:38:14.487Z,1.50
2018-12-22T22:40:42.735Z,1.50
2018-12-22T22:43:11.358Z,1.37
2018-12-22T22:45:39.647Z,1.67
2018-12-22T22:48:07.859Z,1.87
2018-12-22T22:50:36.091Z,1.40
2018-12-22T22:53:04.359Z,1.57
2018-12-22T22:55:32.661Z,1.60
2018-12-22T22:58:00.975Z,1.77
2018-12-22T23:03:18.578Z,1.60
2018-12-22T23:05:46.785Z,1.73
2018-12-22T23:08:14.996Z,1.40
2018-12-22T23:10:43.227Z,1.33
2018-12-22T23:13:11.422Z,1.60
2018-12-22T23:15:39.633Z,1.53
2018-12-22T23:18:07.959Z,1.50
2018-12-22T23:20:36.181Z,1.33
2018-12-22T23:23:04.427Z,1.67
2018-12-22T23:25:32.651Z,1.30
2018-12-22T23:28:00.893Z,1.70
2018-12-22T23:30:29.410Z,1.40
2018-12-22T23:32:57.661Z,1.60
2018-12-22T23:35:25.979Z,1.67
2018-12-22T23:37:54.213Z,1.33
2018-12-22T23:40:22.624Z,1.73
2018-12-22T23:42:50.851Z,1.37
2018-12-22T23:45:19.071Z,1.17
2018-12-22T23:47:47.346Z,1.80
2018-12-22T23:50:15.600Z,1.60
2018-12-22T23:52:43.908Z,1.23
2018-12-22T23:55:12.224Z,1.60
2018-12-22T23:57:40.567Z,1.70
